createdAt,value
2023-05-07T00:02:12.693Z,10.43
2023-05-07T00:04:44.373Z,8.23
2023-05-07T00:07:15.699Z,7.35
2023-05-07T00:09:47.208Z,8.52
2023-05-07T00:12:18.217Z,8.15
2023-05-07T00:14:49.312Z,7.53
2023-05-07T00:20:04.514Z,6.25
2023-05-07T00:22:36.316Z,8.93
2023-05-07T00:25:07.786Z,8.13
2023-05-07T00:27:39.081Z,9.25
2023-05-07T00:30:10.953Z,9.10
2023-05-07T00:32:45.203Z,6.93
2023-05-07T00:35:29.434Z,7.00
2023-05-07T00:38:01.429Z,6.65
2023-05-07T00:40:32.767Z,6.50
2023-05-07T00:43:03.937Z,6.60
2023-05-07T00:45:34.929Z,6.88
2023-05-07T00:48:11.568Z,13.20
2023-05-07T00:50:43.592Z,6.47
2023-05-07T00:53:14.678Z,7.85
2023-05-07T00:55:47.197Z,6.85
2023-05-07T00:58:18.816Z,7.57
2023-05-07T01:00:50.211Z,7.70
2023-05-07T01:03:22.234Z,8.18
2023-05-07T01:05:54.850Z,8.85
2023-05-07T01:08:27.368Z,27.02
2023-05-07T01:10:59.524Z,13.85
2023-05-07T01:13:31.513Z,16.75
2023-05-07T01:16:02.901Z,11.38
2023-05-07T01:18:33.987Z,22.35
2023-05-07T01:21:05.931Z,5.55
2023-05-07T01:26:23.083Z,5.47
2023-05-07T01:28:54.775Z,7.10
2023-05-07T01:31:29.250Z,7.10
2023-05-07T01:34:01.119Z,6.65
2023-05-07T01:36:33.143Z,4.88
2023-05-07T01:39:05.380Z,12.75
2023-05-07T01:41:36.866Z,4.85
2023-05-07T01:44:09.380Z,3.83
2023-05-07T01:46:41.158Z,6.53
2023-05-07T01:49:12.795Z,9.07
2023-05-07T01:51:44.196Z,9.35
2023-05-07T01:54:17.073Z,14.25
2023-05-07T01:56:53.220Z,8.18
2023-05-07T01:59:24.260Z,12.43
2023-05-07T02:01:55.477Z,4.97
2023-05-07T02:04:27.558Z,3.70
2023-05-07T02:07:01.704Z,3.97
2023-05-07T02:09:52.879Z,3.53
2023-05-07T02:12:25.427Z,3.30
2023-05-07T02:14:56.961Z,3.45
2023-05-07T02:17:28.931Z,6.35
2023-05-07T02:22:46.333Z,4.60
2023-05-07T02:25:17.666Z,4.45
2023-05-07T02:28:00.357Z,3.53
2023-05-07T02:30:44.925Z,3.45
2023-05-07T02:33:37.723Z,3.47
2023-05-07T02:36:12.248Z,3.42
2023-05-07T02:38:58.278Z,3.20
2023-05-07T02:44:02.097Z,4.18
2023-05-07T02:46:35.189Z,3.88
2023-05-07T02:49:12.021Z,2.90
2023-05-07T02:51:48.347Z,12.07
2023-05-07T02:54:24.961Z,2.60
2023-05-07T02:57:15.798Z,2.63
2023-05-07T02:59:46.968Z,2.90
2023-05-07T03:02:19.369Z,3.40
2023-05-07T03:04:51.753Z,2.92
2023-05-07T03:07:22.931Z,3.63
2023-05-07T03:09:59.234Z,2.53
2023-05-07T03:12:50.139Z,2.10
2023-05-07T03:15:27.529Z,2.95
2023-05-07T03:17:59.067Z,2.53
2023-05-07T03:20:30.745Z,2.40
2023-05-07T03:23:02.168Z,2.70
2023-05-07T03:25:33.852Z,2.47
2023-05-07T03:28:04.855Z,2.97
2023-05-07T03:30:45.161Z,3.10
2023-05-07T03:33:16.511Z,2.40
2023-05-07T03:36:07.851Z,2.50
2023-05-07T03:38:39.172Z,1.98
2023-05-07T03:41:10.655Z,3.22
2023-05-07T03:43:42.223Z,2.28
2023-05-07T03:46:16.172Z,2.58
2023-05-07T03:48:49.268Z,2.20
2023-05-07T03:51:23.918Z,3.25
2023-05-07T03:53:59.676Z,3.40
2023-05-07T03:56:34.995Z,2.05
2023-05-07T03:59:06.214Z,2.20
2023-05-07T04:01:37.790Z,2.45
2023-05-07T04:04:09.056Z,2.13
2023-05-07T04:06:41.118Z,2.47
2023-05-07T04:09:12.342Z,2.40
2023-05-07T04:11:44.231Z,6.43
2023-05-07T04:14:16.585Z,6.53
2023-05-07T04:17:08.383Z,10.32
2023-05-07T04:20:00.705Z,2.42
2023-05-07T04:25:12.528Z,3.60
2023-05-07T04:27:44.136Z,5.55
2023-05-07T04:30:17.046Z,4.67
2023-05-07T04:32:51.193Z,2.60
2023-05-07T04:35:25.250Z,2.83
2023-05-07T04:37:56.752Z,3.00
2023-05-07T04:40:28.258Z,2.70
2023-05-07T04:42:59.491Z,2.83
2023-05-07T04:45:33.097Z,2.60
2023-05-07T04:48:07.262Z,2.67
2023-05-07T04:50:58.972Z,12.00
2023-05-07T04:53:51.485Z,25.88
2023-05-07T04:56:23.141Z,3.28
2023-05-07T04:58:59.574Z,3.40
2023-05-07T05:01:49.142Z,3.15
2023-05-07T05:04:20.387Z,2.42
2023-05-07T05:06:53.420Z,1.90
2023-05-07T05:09:25.482Z,2.10
2023-05-07T05:12:01.101Z,2.10
2023-05-07T05:17:16.822Z,4.03
2023-05-07T05:19:49.121Z,7.78
2023-05-07T05:22:40.768Z,2.72
2023-05-07T05:25:12.640Z,1.98
2023-05-07T05:27:43.618Z,1.90
2023-05-07T05:30:15.670Z,1.88
2023-05-07T05:32:51.255Z,5.28
2023-05-07T05:35:36.445Z,1.75
2023-05-07T05:38:28.561Z,1.90
2023-05-07T05:41:00.376Z,1.90
2023-05-07T05:43:33.619Z,1.73
2023-05-07T05:48:50.898Z,1.63
2023-05-07T05:51:23.160Z,2.00
2023-05-07T05:53:56.722Z,1.55
2023-05-07T05:56:28.622Z,1.88
2023-05-07T05:58:59.953Z,2.00
2023-05-07T06:01:31.215Z,2.20
2023-05-07T06:04:06.615Z,2.05
2023-05-07T06:06:39.898Z,2.03
2023-05-07T06:14:17.862Z,1.70
2023-05-07T06:16:49.291Z,1.70
2023-05-07T06:19:25.561Z,1.90
2023-05-07T06:22:01.674Z,1.60
2023-05-07T06:24:37.786Z,1.83
2023-05-07T06:27:10.655Z,1.60
2023-05-07T06:30:03.663Z,1.80
2023-05-07T06:32:35.288Z,2.08
2023-05-07T06:35:06.789Z,2.00
2023-05-07T06:37:45.914Z,1.98
2023-05-07T06:40:23.655Z,2.00
2023-05-07T06:42:55.239Z,1.70
2023-05-07T06:45:51.281Z,1.60
2023-05-07T06:51:21.445Z,3.15
2023-05-07T06:54:14.462Z,1.77
2023-05-07T06:56:48.526Z,2.13
2023-05-07T06:59:42.367Z,1.65
2023-05-07T07:02:16.915Z,1.55
2023-05-07T07:05:28.543Z,2.10
2023-05-07T07:08:00.881Z,1.80
2023-05-07T07:13:23.178Z,1.67
2023-05-07T07:16:14.193Z,2.33
2023-05-07T07:18:45.667Z,2.17
2023-05-07T07:21:17.257Z,2.22
2023-05-07T07:23:48.540Z,2.00
2023-05-07T07:26:21.317Z,2.03
2023-05-07T07:29:34.339Z,1.85
2023-05-07T07:32:12.570Z,2.50
2023-05-07T07:34:44.614Z,1.95
2023-05-07T07:37:16.607Z,2.10
2023-05-07T07:39:47.999Z,2.03
2023-05-07T07:42:25.257Z,2.20
2023-05-07T07:45:02.633Z,2.13
2023-05-07T07:47:37.476Z,2.30
2023-05-07T07:50:09.503Z,2.20
2023-05-07T07:53:00.638Z,1.92
2023-05-07T07:55:33.830Z,2.10
2023-05-07T07:58:26.023Z,2.33
2023-05-07T08:01:19.156Z,2.58
2023-05-07T08:03:57.300Z,2.53
2023-05-07T08:06:51.888Z,2.28
2023-05-07T08:09:23.630Z,2.25
2023-05-07T08:11:56.416Z,2.30
2023-05-07T08:14:27.755Z,2.25
2023-05-07T08:16:59.309Z,2.95
2023-05-07T08:19:30.508Z,2.33
2023-05-07T08:22:02.449Z,2.50
2023-05-07T08:24:33.820Z,2.35
2023-05-07T08:27:05.077Z,2.40
2023-05-07T08:29:38.452Z,2.70
2023-05-07T08:32:09.815Z,2.50
2023-05-07T08:34:43.199Z,2.38
2023-05-07T08:37:14.529Z,2.70
2023-05-07T08:39:46.003Z,2.35
2023-05-07T08:45:13.140Z,2.15
2023-05-07T08:47:48.475Z,3.67
2023-05-07T08:53:08.226Z,3.05
2023-05-07T09:00:56.650Z,3.92
2023-05-07T09:03:28.969Z,3.87
2023-05-07T09:06:02.306Z,3.35
2023-05-07T09:08:36.596Z,4.07
2023-05-07T09:11:10.868Z,5.75
2023-05-07T09:13:42.152Z,3.58
2023-05-07T09:16:36.671Z,3.70
2023-05-07T09:19:11.438Z,4.80
2023-05-07T09:22:07.369Z,2.70
2023-05-07T09:24:51.784Z,3.85
2023-05-07T09:27:26.735Z,2.67
2023-05-07T09:29:59.505Z,5.77
2023-05-07T09:32:30.828Z,4.95
2023-05-07T09:35:03.840Z,4.22
2023-05-07T09:37:35.763Z,3.85
2023-05-07T09:40:10.100Z,4.13
2023-05-07T09:42:42.728Z,8.60
2023-05-07T09:45:35.571Z,8.93
2023-05-07T09:48:08.483Z,8.80
2023-05-07T09:50:40.892Z,5.75
2023-05-07T09:53:13.953Z,4.30
2023-05-07T09:55:46.184Z,4.13
2023-05-07T09:58:31.655Z,4.22
2023-05-07T10:01:05.181Z,3.83
2023-05-07T10:03:37.538Z,5.05
2023-05-07T10:06:28.656Z,5.90
2023-05-07T10:09:20.008Z,5.57
2023-05-07T10:11:53.269Z,5.35
2023-05-07T10:14:45.676Z,5.18
2023-05-07T10:17:19.081Z,5.30
2023-05-07T10:19:51.605Z,5.72
2023-05-07T10:22:25.559Z,8.85
2023-05-07T10:25:17.208Z,5.72
2023-05-07T10:27:52.580Z,5.63
2023-05-07T10:30:54.991Z,6.32
2023-05-07T10:33:30.072Z,6.80
2023-05-07T10:36:08.409Z,5.75
2023-05-07T10:38:41.674Z,7.13
2023-05-07T10:41:14.854Z,6.72
2023-05-07T10:44:40.595Z,10.90
2023-05-07T10:47:20.911Z,13.35
2023-05-07T10:50:16.714Z,10.98
2023-05-07T10:52:48.310Z,6.40
2023-05-07T10:55:28.216Z,6.05
2023-05-07T11:01:22.193Z,6.45
2023-05-07T11:04:26.875Z,5.82
2023-05-07T11:10:30.016Z,5.75
2023-05-07T11:13:08.362Z,6.45
2023-05-07T11:15:49.174Z,9.00
2023-05-07T11:18:50.691Z,6.32
2023-05-07T11:21:44.548Z,6.35
2023-05-07T11:24:42.136Z,5.88
2023-05-07T11:27:34.988Z,5.55
2023-05-07T11:30:06.737Z,5.80
2023-05-07T11:32:38.541Z,7.15
2023-05-07T11:35:14.868Z,6.43
2023-05-07T11:37:55.172Z,5.78
2023-05-07T11:40:28.976Z,6.10
2023-05-07T11:43:19.948Z,6.13
2023-05-07T11:45:51.893Z,5.22
2023-05-07T11:48:28.647Z,6.10
2023-05-07T11:51:07.672Z,6.00
2023-05-07T11:53:43.023Z,6.30
2023-05-07T11:56:15.205Z,6.25
2023-05-07T11:58:47.239Z,5.57
2023-05-07T12:01:39.722Z,6.10
2023-05-07T12:04:10.889Z,6.15
2023-05-07T12:06:42.133Z,5.35
2023-05-07T12:09:33.286Z,5.53
2023-05-07T12:12:08.506Z,6.35
2023-05-07T12:14:47.165Z,5.95
2023-05-07T12:17:25.003Z,6.43
2023-05-07T12:19:58.950Z,6.60
2023-05-07T12:22:52.316Z,6.50
2023-05-07T12:25:24.908Z,6.32
2023-05-07T12:31:13.769Z,6.25
2023-05-07T12:33:45.283Z,6.68
2023-05-07T12:36:17.313Z,6.10
2023-05-07T12:38:48.417Z,6.13
2023-05-07T12:44:08.449Z,6.15
2023-05-07T12:49:25.149Z,5.88
2023-05-07T12:54:41.690Z,6.75
2023-05-07T12:57:32.558Z,6.47
2023-05-07T13:00:06.713Z,6.45
2023-05-07T13:02:38.836Z,6.50
2023-05-07T13:05:13.382Z,5.95
2023-05-07T13:07:56.628Z,6.25
2023-05-07T13:10:29.623Z,6.10
2023-05-07T13:13:00.777Z,6.20
2023-05-07T13:18:35.915Z,5.95
2023-05-07T13:21:08.681Z,6.13
2023-05-07T13:23:44.684Z,6.38
2023-05-07T13:26:26.394Z,6.18
2023-05-07T13:29:02.111Z,6.20
2023-05-07T13:31:34.053Z,6.63
2023-05-07T13:34:06.954Z,6.57
2023-05-07T13:37:19.307Z,5.68
2023-05-07T13:39:56.096Z,6.28
2023-05-07T13:42:48.596Z,6.05
2023-05-07T13:45:21.211Z,5.78
2023-05-07T13:48:19.383Z,5.30
2023-05-07T13:50:58.956Z,6.38
2023-05-07T13:54:09.418Z,6.20
2023-05-07T13:56:47.805Z,6.00
2023-05-07T13:59:19.653Z,6.25
2023-05-07T14:02:14.658Z,5.40
2023-05-07T14:04:46.221Z,6.30
2023-05-07T14:07:17.995Z,6.47
2023-05-07T14:09:49.212Z,6.25
2023-05-07T14:12:39.944Z,6.30
2023-05-07T14:15:17.519Z,6.45
2023-05-07T14:17:49.467Z,6.78
2023-05-07T14:20:24.377Z,6.07
2023-05-07T14:22:57.687Z,5.50
2023-05-07T14:28:00.444Z,5.47
2023-05-07T14:30:32.091Z,6.57
2023-05-07T14:35:50.995Z,5.85
2023-05-07T14:38:22.156Z,6.35
2023-05-07T14:40:56.593Z,6.13
2023-05-07T14:43:28.112Z,6.40
2023-05-07T14:46:00.786Z,6.93
2023-05-07T14:48:35.602Z,6.50
2023-05-07T14:51:07.375Z,6.07
2023-05-07T14:53:38.577Z,6.70
2023-05-07T14:56:12.859Z,6.28
2023-05-07T14:59:07.907Z,7.28
2023-05-07T15:01:40.915Z,6.03
2023-05-07T15:04:12.492Z,7.23
2023-05-07T15:07:07.632Z,6.25
2023-05-07T15:09:40.903Z,7.05
2023-05-07T15:12:13.130Z,6.63
2023-05-07T15:18:18.190Z,7.22
2023-05-07T15:20:53.800Z,7.43
2023-05-07T15:23:52.554Z,7.03
2023-05-07T15:29:12.582Z,7.30
2023-05-07T15:32:15.102Z,7.80
2023-05-07T15:37:17.889Z,7.55
2023-05-07T15:39:50.223Z,7.75
2023-05-07T15:42:21.172Z,7.85
2023-05-07T15:44:52.478Z,8.30
2023-05-07T15:47:23.695Z,8.43
2023-05-07T15:50:14.966Z,7.68
2023-05-07T15:52:47.632Z,8.07
2023-05-07T15:55:39.201Z,8.55
2023-05-07T15:58:11.212Z,8.43
2023-05-07T16:00:43.042Z,8.02
2023-05-07T16:03:23.949Z,8.48
2023-05-07T16:06:15.410Z,7.45
2023-05-07T16:09:07.652Z,8.10
2023-05-07T16:14:22.778Z,8.30
2023-05-07T16:16:54.653Z,8.77
2023-05-07T16:19:31.339Z,8.75
2023-05-07T16:22:02.345Z,8.93
2023-05-07T16:24:33.530Z,9.32
2023-05-07T16:27:04.548Z,8.52
2023-05-07T16:29:35.677Z,8.27
2023-05-07T16:32:06.719Z,8.60
2023-05-07T16:34:51.101Z,9.05
2023-05-07T16:37:23.816Z,8.15
2023-05-07T16:39:58.021Z,9.00
2023-05-07T16:43:08.822Z,8.80
2023-05-07T16:45:40.334Z,8.48
2023-05-07T16:48:16.917Z,8.70
2023-05-07T16:50:53.048Z,8.93
2023-05-07T16:53:44.559Z,9.00
2023-05-07T16:56:35.648Z,8.25
2023-05-07T16:59:06.972Z,9.07
2023-05-07T17:01:39.066Z,9.00
2023-05-07T17:04:21.323Z,8.95
2023-05-07T17:06:52.869Z,8.85
2023-05-07T17:09:24.212Z,9.65
2023-05-07T17:11:58.048Z,9.13
2023-05-07T17:14:48.988Z,8.50
2023-05-07T17:17:20.324Z,8.70
2023-05-07T17:20:11.307Z,8.98
2023-05-07T17:22:44.176Z,8.80
2023-05-07T17:25:20.049Z,9.32
2023-05-07T17:27:53.312Z,9.30
2023-05-07T17:30:25.245Z,10.02
2023-05-07T17:33:21.600Z,8.98
2023-05-07T17:35:56.385Z,9.65
2023-05-07T17:38:27.507Z,8.85
2023-05-07T17:40:58.695Z,9.60
2023-05-07T17:43:29.989Z,9.40
2023-05-07T17:46:03.564Z,9.70
2023-05-07T17:48:35.042Z,9.82
2023-05-07T17:51:06.758Z,9.25
2023-05-07T17:53:37.826Z,8.77
2023-05-07T17:56:08.863Z,9.07
2023-05-07T17:58:57.372Z,9.55
2023-05-07T18:01:29.759Z,9.88
2023-05-07T18:04:00.903Z,10.13
2023-05-07T18:06:32.017Z,9.95
2023-05-07T18:09:03.074Z,10.07
2023-05-07T18:11:35.036Z,9.98
2023-05-07T18:14:06.306Z,10.57
2023-05-07T18:16:37.489Z,10.75
2023-05-07T18:19:08.735Z,9.18
2023-05-07T18:21:41.360Z,10.82
2023-05-07T18:24:12.820Z,10.10
2023-05-07T18:26:43.762Z,9.30
2023-05-07T18:29:14.957Z,10.50
2023-05-07T18:31:46.344Z,10.75
2023-05-07T18:34:17.449Z,11.00
2023-05-07T18:36:49.300Z,10.27
2023-05-07T18:39:21.549Z,10.90
2023-05-07T18:41:52.923Z,10.73
2023-05-07T18:44:23.988Z,9.30
2023-05-07T18:46:54.982Z,10.13
2023-05-07T18:49:26.157Z,8.48
2023-05-07T18:51:58.454Z,10.65
2023-05-07T18:54:29.761Z,11.07
2023-05-07T18:57:00.763Z,9.95
2023-05-07T18:59:32.072Z,10.00
2023-05-07T19:02:03.285Z,9.73
2023-05-07T19:04:34.433Z,10.60
2023-05-07T19:07:05.744Z,9.82
2023-05-07T19:09:37.231Z,10.20
2023-05-07T19:12:08.778Z,10.40
2023-05-07T19:14:42.657Z,9.00
2023-05-07T19:19:50.817Z,9.60
2023-05-07T19:22:22.236Z,10.25
2023-05-07T19:24:53.505Z,10.23
2023-05-07T19:27:24.700Z,9.35
2023-05-07T19:29:56.024Z,9.65
2023-05-07T19:32:27.312Z,9.70
2023-05-07T19:34:58.709Z,10.23
2023-05-07T19:37:30.161Z,9.27
2023-05-07T19:40:06.445Z,9.68
2023-05-07T19:42:38.189Z,9.73
2023-05-07T19:45:09.654Z,9.88
2023-05-07T19:47:40.913Z,10.10
2023-05-07T19:50:12.287Z,10.05
2023-05-07T19:52:43.392Z,9.65
2023-05-07T19:55:14.964Z,10.00
2023-05-07T19:57:51.678Z,9.30
2023-05-07T20:00:23.468Z,9.07
2023-05-07T20:02:54.885Z,10.25
2023-05-07T20:05:27.157Z,9.20
2023-05-07T20:07:58.799Z,9.43
2023-05-07T20:10:29.871Z,9.63
2023-05-07T20:13:01.126Z,9.40
2023-05-07T20:15:32.376Z,9.73
2023-05-07T20:18:03.641Z,9.30
2023-05-07T20:20:35.252Z,8.77
2023-05-07T20:23:06.298Z,9.20
2023-05-07T20:25:37.557Z,9.25
2023-05-07T20:28:08.490Z,8.82
2023-05-07T20:30:39.456Z,8.57
2023-05-07T20:33:10.751Z,9.35
2023-05-07T20:35:41.917Z,8.38
2023-05-07T20:38:13.255Z,8.65
2023-05-07T20:40:44.314Z,8.75
2023-05-07T20:43:15.596Z,9.75
2023-05-07T20:45:46.752Z,8.65
2023-05-07T20:48:18.119Z,7.82
2023-05-07T20:50:49.225Z,9.15
2023-05-07T20:53:20.176Z,8.30
2023-05-07T20:55:51.303Z,8.27
2023-05-07T20:58:22.393Z,8.38
2023-05-07T21:00:54.712Z,7.80
2023-05-07T21:03:26.284Z,6.50
2023-05-07T21:05:57.926Z,6.45
2023-05-07T21:08:29.329Z,7.50
2023-05-07T21:11:01.081Z,5.85
2023-05-07T21:13:32.359Z,6.10
2023-05-07T21:16:03.381Z,6.28
2023-05-07T21:18:34.483Z,5.95
2023-05-07T21:21:10.017Z,5.72
2023-05-07T21:23:41.048Z,5.80
2023-05-07T21:26:12.140Z,6.18
2023-05-07T21:28:43.258Z,5.30
2023-05-07T21:31:14.751Z,6.30
2023-05-07T21:33:46.679Z,5.43
2023-05-07T21:36:17.770Z,5.65
2023-05-07T21:38:48.741Z,5.97
2023-05-07T21:41:22.144Z,5.65
2023-05-07T21:43:53.300Z,5.97
2023-05-07T21:46:24.487Z,5.95
2023-05-07T21:48:55.595Z,5.53
2023-05-07T21:51:26.617Z,6.10
2023-05-07T21:53:57.717Z,6.25
2023-05-07T21:56:28.749Z,5.53
2023-05-07T21:58:59.770Z,5.25
2023-05-07T22:01:31.615Z,5.50
2023-05-07T22:04:02.851Z,5.55
2023-05-07T22:06:34.002Z,5.47
2023-05-07T22:09:05.475Z,5.43
2023-05-07T22:11:36.755Z,5.50
2023-05-07T22:14:08.031Z,5.30
2023-05-07T22:16:39.066Z,5.43
2023-05-07T22:19:10.001Z,5.88
2023-05-07T22:21:41.055Z,5.72
2023-05-07T22:24:12.546Z,5.53
2023-05-07T22:26:43.928Z,5.85
2023-05-07T22:29:15.251Z,6.05
2023-05-07T22:31:46.570Z,6.03
2023-05-07T22:34:17.896Z,6.22
2023-05-07T22:36:49.252Z,6.10
2023-05-07T22:39:20.522Z,5.80
2023-05-07T22:41:51.538Z,5.22
2023-05-07T22:44:22.808Z,5.65
2023-05-07T22:46:53.962Z,5.55
2023-05-07T22:49:24.929Z,5.65
2023-05-07T22:51:56.313Z,5.85
2023-05-07T22:54:28.035Z,5.75
2023-05-07T22:57:02.286Z,5.93
2023-05-07T22:59:33.752Z,5.97
2023-05-07T23:02:05.902Z,5.90
2023-05-07T23:04:37.272Z,6.13
2023-05-07T23:07:08.555Z,6.53
2023-05-07T23:09:39.883Z,6.40
2023-05-07T23:12:12.132Z,6.40
2023-05-07T23:14:47.702Z,5.80
2023-05-07T23:17:19.235Z,6.50
2023-05-07T23:19:51.786Z,6.10
2023-05-07T23:22:23.213Z,6.28
2023-05-07T23:24:54.599Z,6.60
2023-05-07T23:27:25.750Z,7.00
2023-05-07T23:29:57.415Z,6.50
2023-05-07T23:32:28.479Z,6.97
2023-05-07T23:34:59.493Z,6.45
2023-05-07T23:37:30.611Z,6.38
2023-05-07T23:40:01.989Z,6.82
2023-05-07T23:42:33.405Z,7.15
2023-05-07T23:45:05.052Z,7.40
2023-05-07T23:47:36.404Z,7.50
2023-05-07T23:50:07.830Z,6.70
2023-05-07T23:52:38.896Z,7.13
2023-05-07T23:55:12.684Z,7.25
2023-05-07T23:57:44.543Z,7.70
